sensor_id;sensor_type;location;lat;lon;timestamp;temperature;humidity
16388;DHT22;8303;53.446;9.988;2023-02-18T05:47:41;6.20;99.90
16388;DHT22;8303;53.446;9.988;2023-02-18T05:50:08;6.10;99.90
16388;DHT22;8303;53.446;9.988;2023-02-18T05:52:36;6.10;99.90
16388;DHT22;8303;53.446;9.988;2023-02-18T05:55:06;6.10;1.00
16388;DHT22;8303;53.446;9.988;2023-02-18T05:57:33;6.10;1.00
16388;DHT22;8303;53.446;9.988;2023-02-18T06:00:00;6.00;1.00
16388;DHT22;8303;53.446;9.988;2023-02-18T06:02:29;6.00;1.00
16388;DHT22;8303;53.446;9.988;2023-02-18T06:04:57;6.00;1.00
16388;DHT22;8303;53.446;9.988;2023-02-18T06:07:24;5.90;1.00
16388;DHT22;8303;53.446;9.988;2023-02-18T06:09:51;5.90;13.70
16388;DHT22;8303;53.446;9.988;2023-02-18T06:12:18;5.90;99.90
16388;DHT22;8303;53.446;9.988;2023-02-18T06:14:46;5.90;99.90
16388;DHT22;8303;53.446;9.988;2023-02-18T06:17:13;5.90;1.00
16388;DHT22;8303;53.446;9.988;2023-02-18T06:19:40;5.90;1.00
16388;DHT22;8303;53.446;9.988;2023-02-18T06:22:09;5.90;1.00
16388;DHT22;8303;53.446;9.988;2023-02-18T06:24:36;5.80;1.00
16388;DHT22;8303;53.446;9.988;2023-02-18T06:27:03;5.80;1.00
16388;DHT22;8303;53.446;9.988;2023-02-18T06:29:30;5.80;1.00
16388;DHT22;8303;53.446;9.988;2023-02-18T06:31:57;5.80;1.00
16388;DHT22;8303;53.446;9.988;2023-02-18T06:34:26;5.80;30.00
16388;DHT22;8303;53.446;9.988;2023-02-18T06:36:53;5.80;99.90
16388;DHT22;8303;53.446;9.988;2023-02-18T06:39:21;5.80;99.90
16388;DHT22;8303;53.446;9.988;2023-02-18T06:41:48;5.70;99.90
16388;DHT22;8303;53.446;9.988;2023-02-18T06:44:15;5.70;1.00
16388;DHT22;8303;53.446;9.988;2023-02-18T06:46:43;5.70;1.00
16388;DHT22;8303;53.446;9.988;2023-02-18T06:49:10;5.70;1.00
16388;DHT22;8303;53.446;9.988;2023-02-18T06:51:37;5.70;1.00
16388;DHT22;8303;53.446;9.988;2023-02-18T06:54:04;5.70;1.00
16388;DHT22;8303;53.446;9.988;2023-02-18T06:56:33;5.80;1.00
16388;DHT22;8303;53.446;9.988;2023-02-18T06:59:00;5.80;1.00
16388;DHT22;8303;53.446;9.988;2023-02-18T07:01:27;5.80;4.20
16388;DHT22;8303;53.446;9.988;2023-02-18T07:03:54;5.80;3.60
16388;DHT22;8303;53.446;9.988;2023-02-18T07:06:20;5.80;1.00
16388;DHT22;8303;53.446;9.988;2023-02-18T07:08:48;5.90;53.20
16388;DHT22;8303;53.446;9.988;2023-02-18T07:11:15;5.80;90.00
16388;DHT22;8303;53.446;9.988;2023-02-18T07:13:43;5.80;61.80
16388;DHT22;8303;53.446;9.988;2023-02-18T07:16:10;5.90;99.90
16388;DHT22;8303;53.446;9.988;2023-02-18T07:18:37;5.90;99.90
16388;DHT22;8303;53.446;9.988;2023-02-18T07:21:04;5.90;99.90
16388;DHT22;8303;53.446;9.988;2023-02-18T07:23:31;6.00;99.90
16388;DHT22;8303;53.446;9.988;2023-02-18T07:26:06;6.00;99.90
16388;DHT22;8303;53.446;9.988;2023-02-18T07:28:33;6.10;99.90
16388;DHT22;8303;53.446;9.988;2023-02-18T07:31:01;6.10;94.90
16388;DHT22;8303;53.446;9.988;2023-02-18T07:33:28;6.10;4.70
16388;DHT22;8303;53.446;9.988;2023-02-18T07:35:57;6.20;1.00
16388;DHT22;8303;53.446;9.988;2023-02-18T07:38:25;6.20;1.00
16388;DHT22;8303;53.446;9.988;2023-02-18T07:40:53;6.20;57.60
16388;DHT22;8303;53.446;9.988;2023-02-18T07:43:21;6.30;38.90
16388;DHT22;8303;53.446;9.988;2023-02-18T07:45:49;6.30;99.90
16388;DHT22;8303;53.446;9.988;2023-02-18T07:48:17;6.30;1.00
16388;DHT22;8303;53.446;9.988;2023-02-18T07:50:45;6.30;1.00
16388;DHT22;8303;53.446;9.988;2023-02-18T07:53:14;6.40;99.90
16388;DHT22;8303;53.446;9.988;2023-02-18T07:55:41;6.30;52.30
16388;DHT22;8303;53.446;9.988;2023-02-18T07:58:19;6.30;1.00
16388;DHT22;8303;53.446;9.988;2023-02-18T08:00:47;6.40;1.00
16388;DHT22;8303;53.446;9.988;2023-02-18T08:03:17;6.50;1.00
16388;DHT22;8303;53.446;9.988;2023-02-18T08:05:44;6.40;1.00
16388;DHT22;8303;53.446;9.988;2023-02-18T08:08:13;6.40;1.00
16388;DHT22;8303;53.446;9.988;2023-02-18T08:10:41;6.40;1.00
16388;DHT22;8303;53.446;9.988;2023-02-18T08:13:08;6.40;1.00
16388;DHT22;8303;53.446;9.988;2023-02-18T08:15:36;6.40;1.00
16388;DHT22;8303;53.446;9.988;2023-02-18T08:18:03;6.40;1.00
16388;DHT22;8303;53.446;9.988;2023-02-18T08:20:35;6.40;1.00
16388;DHT22;8303;53.446;9.988;2023-02-18T08:23:02;6.40;1.00
16388;DHT22;8303;53.446;9.988;2023-02-18T08:25:29;6.40;1.00
16388;DHT22;8303;53.446;9.988;2023-02-18T08:27:56;6.40;1.00
16388;DHT22;8303;53.446;9.988;2023-02-18T08:30:24;6.50;1.00
16388;DHT22;8303;53.446;9.988;2023-02-18T08:32:51;6.50;1.00
16388;DHT22;8303;53.446;9.988;2023-02-18T08:35:19;6.50;1.00
16388;DHT22;8303;53.446;9.988;2023-02-18T08:37:48;6.50;1.00
16388;DHT22;8303;53.446;9.988;2023-02-18T08:40:15;6.50;99.90
16388;DHT22;8303;53.446;9.988;2023-02-18T08:42:42;6.60;99.90
16388;DHT22;8303;53.446;9.988;2023-02-18T08:45:09;6.50;99.90
16388;DHT22;8303;53.446;9.988;2023-02-18T08:47:36;6.60;99.90
16388;DHT22;8303;53.446;9.988;2023-02-18T08:50:04;6.50;99.90
16388;DHT22;8303;53.446;9.988;2023-02-18T08:52:31;6.50;99.90
16388;DHT22;8303;53.446;9.988;2023-02-18T08:55:00;6.60;99.90
16388;DHT22;8303;53.446;9.988;2023-02-18T08:57:27;6.50;99.90
16388;DHT22;8303;53.446;9.988;2023-02-18T08:59:54;6.60;99.90
16388;DHT22;8303;53.446;9.988;2023-02-18T09:02:21;6.60;99.90
16388;DHT22;8303;53.446;9.988;2023-02-18T09:04:48;6.60;1.00
16388;DHT22;8303;53.446;9.988;2023-02-18T09:07:15;6.60;1.00
16388;DHT22;8303;53.446;9.988;2023-02-18T09:09:45;6.60;99.90
16388;DHT22;8303;53.446;9.988;2023-02-18T09:12:14;6.70;1.00
16388;DHT22;8303;53.446;9.988;2023-02-18T09:14:41;6.70;1.00
16388;DHT22;8303;53.446;9.988;2023-02-18T09:17:08;6.80;1.00
16388;DHT22;8303;53.446;9.988;2023-02-18T09:19:34;6.80;1.00
16388;DHT22;8303;53.446;9.988;2023-02-18T09:22:01;6.70;1.00
16388;DHT22;8303;53.446;9.988;2023-02-18T09:24:28;6.60;1.00
16388;DHT22;8303;53.446;9.988;2023-02-18T09:26:55;6.70;1.00
16388;DHT22;8303;53.446;9.988;2023-02-18T09:29:24;6.70;1.00
16388;DHT22;8303;53.446;9.988;2023-02-18T09:31:51;6.80;1.00
16388;DHT22;8303;53.446;9.988;2023-02-18T09:34:18;6.80;1.00
16388;DHT22;8303;53.446;9.988;2023-02-18T09:36:45;6.90;1.00
16388;DHT22;8303;53.446;9.988;2023-02-18T09:39:12;7.00;1.00
16388;DHT22;8303;53.446;9.988;2023-02-18T09:41:42;6.90;1.00
16388;DHT22;8303;53.446;9.988;2023-02-18T09:44:15;6.90;1.00
16388;DHT22;8303;53.446;9.988;2023-02-18T09:46:50;6.80;1.00
16388;DHT22;8303;53.446;9.988;2023-02-18T09:49:20;6.80;1.00
16388;DHT22;8303;53.446;9.988;2023-02-18T09:51:49;6.80;1.00
16388;DHT22;8303;53.446;9.988;2023-02-18T09:54:18;6.80;1.00
16388;DHT22;8303;53.446;9.988;2023-02-18T09:56:46;6.90;1.00
16388;DHT22;8303;53.446;9.988;2023-02-18T09:59:16;6.90;1.00
16388;DHT22;8303;53.446;9.988;2023-02-18T10:01:45;6.90;1.00
16388;DHT22;8303;53.446;9.988;2023-02-18T10:04:18;7.00;1.00
16388;DHT22;8303;53.446;9.988;2023-02-18T10:07:22;7.00;1.00
16388;DHT22;8303;53.446;9.988;2023-02-18T10:09:53;7.20;1.00
16388;DHT22;8303;53.446;9.988;2023-02-18T10:12:23;7.20;1.00
16388;DHT22;8303;53.446;9.988;2023-02-18T10:14:51;7.30;1.00
16388;DHT22;8303;53.446;9.988;2023-02-18T10:17:20;7.40;1.00
16388;DHT22;8303;53.446;9.988;2023-02-18T10:19:52;7.60;1.00
16388;DHT22;8303;53.446;9.988;2023-02-18T10:22:21;7.50;1.00
16388;DHT22;8303;53.446;9.988;2023-02-18T10:24:52;7.60;1.00
16388;DHT22;8303;53.446;9.988;2023-02-18T10:27:23;7.70;1.00
16388;DHT22;8303;53.446;9.988;2023-02-18T10:29:50;7.90;1.00
16388;DHT22;8303;53.446;9.988;2023-02-18T10:32:22;8.00;1.00
16388;DHT22;8303;53.446;9.988;2023-02-18T10:34:53;8.20;1.00
16388;DHT22;8303;53.446;9.988;2023-02-18T10:37:35;8.40;1.00
16388;DHT22;8303;53.446;9.988;2023-02-18T10:40:12;8.60;1.00
16388;DHT22;8303;53.446;9.988;2023-02-18T10:42:49;8.80;1.00
16388;DHT22;8303;53.446;9.988;2023-02-18T10:45:26;9.00;1.00
16388;DHT22;8303;53.446;9.988;2023-02-18T10:48:08;9.10;1.00
16388;DHT22;8303;53.446;9.988;2023-02-18T10:50:45;9.20;3.60
16388;DHT22;8303;53.446;9.988;2023-02-18T10:53:14;9.30;28.80
16388;DHT22;8303;53.446;9.988;2023-02-18T10:55:45;9.50;43.50
16388;DHT22;8303;53.446;9.988;2023-02-18T10:58:26;9.50;52.50
16388;DHT22;8303;53.446;9.988;2023-02-18T11:00:53;9.70;60.40
16388;DHT22;8303;53.446;9.988;2023-02-18T11:03:21;9.90;66.40
16388;DHT22;8303;53.446;9.988;2023-02-18T11:05:52;9.80;13.20
16388;DHT22;8303;53.446;9.988;2023-02-18T11:08:22;9.90;1.00
16388;DHT22;8303;53.446;9.988;2023-02-18T11:10:50;9.90;1.00
16388;DHT22;8303;53.446;9.988;2023-02-18T11:13:24;9.90;1.00
16388;DHT22;8303;53.446;9.988;2023-02-18T11:15:57;10.10;6.20
16388;DHT22;8303;53.446;9.988;2023-02-18T11:18:35;10.10;1.00
16388;DHT22;8303;53.446;9.988;2023-02-18T11:21:06;10.20;1.00
16388;DHT22;8303;53.446;9.988;2023-02-18T11:23:46;10.30;1.00
16388;DHT22;8303;53.446;9.988;2023-02-18T11:26:15;10.20;1.00
16388;DHT22;8303;53.446;9.988;2023-02-18T11:28:44;10.20;1.00
16388;DHT22;8303;53.446;9.988;2023-02-18T11:31:19;10.20;1.00
16388;DHT22;8303;53.446;9.988;2023-02-18T11:33:49;10.10;1.00
16388;DHT22;8303;53.446;9.988;2023-02-18T11:36:22;10.10;1.00
16388;DHT22;8303;53.446;9.988;2023-02-18T11:38:52;10.20;1.00
16388;DHT22;8303;53.446;9.988;2023-02-18T11:41:27;10.40;1.00
16388;DHT22;8303;53.446;9.988;2023-02-18T11:43:57;10.30;1.00
16388;DHT22;8303;53.446;9.988;2023-02-18T11:46:25;10.30;1.00
16388;DHT22;8303;53.446;9.988;2023-02-18T11:48:53;10.30;1.00
16388;DHT22;8303;53.446;9.988;2023-02-18T11:51:23;10.30;1.00
16388;DHT22;8303;53.446;9.988;2023-02-18T11:53:56;10.20;1.00
16388;DHT22;8303;53.446;9.988;2023-02-18T11:56:25;10.20;1.00
16388;DHT22;8303;53.446;9.988;2023-02-18T11:58:53;10.10;1.00
16388;DHT22;8303;53.446;9.988;2023-02-18T12:01:29;10.10;1.00
16388;DHT22;8303;53.446;9.988;2023-02-18T12:04:00;10.10;1.00
16388;DHT22;8303;53.446;9.988;2023-02-18T12:06:33;10.00;1.00
16388;DHT22;8303;53.446;9.988;2023-02-18T12:09:04;9.90;1.00
16388;DHT22;8303;53.446;9.988;2023-02-18T12:11:35;9.90;8.40
16388;DHT22;8303;53.446;9.988;2023-02-18T12:16:39;9.90;1.00
16388;DHT22;8303;53.446;9.988;2023-02-18T12:19:41;9.80;41.00
16388;DHT22;8303;53.446;9.988;2023-02-18T12:22:17;9.70;99.90
16388;DHT22;8303;53.446;9.988;2023-02-18T12:24:59;9.70;99.90
16388;DHT22;8303;53.446;9.988;2023-02-18T12:27:31;9.70;99.90
16388;DHT22;8303;53.446;9.988;2023-02-18T12:30:26;9.70;99.90
16388;DHT22;8303;53.446;9.988;2023-02-18T12:33:02;9.70;99.90
16388;DHT22;8303;53.446;9.988;2023-02-18T12:35:44;9.70;99.90
16388;DHT22;8303;53.446;9.988;2023-02-18T12:38:29;9.70;99.90
16388;DHT22;8303;53.446;9.988;2023-02-18T12:41:08;9.60;99.90
16388;DHT22;8303;53.446;9.988;2023-02-18T12:43:46;9.60;99.90
16388;DHT22;8303;53.446;9.988;2023-02-18T12:46:26;9.60;99.90
16388;DHT22;8303;53.446;9.988;2023-02-18T12:49:14;9.60;99.90
16388;DHT22;8303;53.446;9.988;2023-02-18T12:51:56;9.60;99.90
16388;DHT22;8303;53.446;9.988;2023-02-18T12:54:39;9.50;99.90
16388;DHT22;8303;53.446;9.988;2023-02-18T12:57:28;9.50;99.90
16388;DHT22;8303;53.446;9.988;2023-02-18T13:00:27;9.50;99.90
16388;DHT22;8303;53.446;9.988;2023-02-18T13:03:37;9.50;99.90
16388;DHT22;8303;53.446;9.988;2023-02-18T13:06:22;9.50;99.90
16388;DHT22;8303;53.446;9.988;2023-02-18T13:09:02;9.40;99.90
16388;DHT22;8303;53.446;9.988;2023-02-18T13:11:41;9.40;99.90
16388;DHT22;8303;53.446;9.988;2023-02-18T13:14:15;9.40;99.90
16388;DHT22;8303;53.446;9.988;2023-02-18T13:16:47;9.40;99.90
16388;DHT22;8303;53.446;9.988;2023-02-18T13:19:19;9.40;99.90
16388;DHT22;8303;53.446;9.988;2023-02-18T13:21:49;9.30;99.90
16388;DHT22;8303;53.446;9.988;2023-02-18T13:24:26;9.40;99.90
16388;DHT22;8303;53.446;9.988;2023-02-18T13:26:59;9.30;99.90
16388;DHT22;8303;53.446;9.988;2023-02-18T13:29:31;9.30;99.90
16388;DHT22;8303;53.446;9.988;2023-02-18T13:32:07;9.30;99.90
16388;DHT22;8303;53.446;9.988;2023-02-18T13:34:40;9.30;92.20
16388;DHT22;8303;53.446;9.988;2023-02-18T13:37:14;9.30;39.30
16388;DHT22;8303;53.446;9.988;2023-02-18T13:39:47;9.30;90.10
16388;DHT22;8303;53.446;9.988;2023-02-18T13:42:32;9.30;36.80
16388;DHT22;8303;53.446;9.988;2023-02-18T13:45:24;9.30;72.80
16388;DHT22;8303;53.446;9.988;2023-02-18T13:47:52;9.30;13.80
16388;DHT22;8303;53.446;9.988;2023-02-18T13:50:27;9.30;49.00
16388;DHT22;8303;53.446;9.988;2023-02-18T13:53:12;9.30;71.20
16388;DHT22;8303;53.446;9.988;2023-02-18T13:55:41;9.20;52.30
16388;DHT22;8303;53.446;9.988;2023-02-18T13:58:19;9.20;48.20
16388;DHT22;8303;53.446;9.988;2023-02-18T14:00:49;9.20;68.90
16388;DHT22;8303;53.446;9.988;2023-02-18T14:03:32;9.20;48.30
16388;DHT22;8303;53.446;9.988;2023-02-18T14:06:01;9.10;58.20
16388;DHT22;8303;53.446;9.988;2023-02-18T14:08:38;9.10;93.70
16388;DHT22;8303;53.446;9.988;2023-02-18T14:11:31;9.10;99.90
16388;DHT22;8303;53.446;9.988;2023-02-18T14:20:42;9.00;98.90
16388;DHT22;8303;53.446;9.988;2023-02-18T14:23:41;8.90;78.80
16388;DHT22;8303;53.446;9.988;2023-02-18T14:26:16;8.90;80.40
16388;DHT22;8303;53.446;9.988;2023-02-18T14:28:50;8.80;58.30
16388;DHT22;8303;53.446;9.988;2023-02-18T14:31:27;8.80;1.00
16388;DHT22;8303;53.446;9.988;2023-02-18T14:34:25;8.80;24.30
16388;DHT22;8303;53.446;9.988;2023-02-18T14:37:04;8.70;1.00
16388;DHT22;8303;53.446;9.988;2023-02-18T14:39:44;8.70;1.00
16388;DHT22;8303;53.446;9.988;2023-02-18T14:42:23;8.60;1.00
16388;DHT22;8303;53.446;9.988;2023-02-18T14:45:08;8.60;1.00
16388;DHT22;8303;53.446;9.988;2023-02-18T14:47:49;8.60;1.00
16388;DHT22;8303;53.446;9.988;2023-02-18T14:50:21;8.50;1.00
16388;DHT22;8303;53.446;9.988;2023-02-18T14:52:53;8.50;1.00
16388;DHT22;8303;53.446;9.988;2023-02-18T14:55:24;8.50;1.00
16388;DHT22;8303;53.446;9.988;2023-02-18T14:57:55;8.30;1.00
16388;DHT22;8303;53.446;9.988;2023-02-18T15:00:24;8.20;1.00
16388;DHT22;8303;53.446;9.988;2023-02-18T15:02:54;8.10;1.00
16388;DHT22;8303;53.446;9.988;2023-02-18T15:05:22;7.90;1.00
16388;DHT22;8303;53.446;9.988;2023-02-18T15:07:58;7.80;1.00
16388;DHT22;8303;53.446;9.988;2023-02-18T15:10:35;7.80;1.00
16388;DHT22;8303;53.446;9.988;2023-02-18T15:13:04;7.80;1.00
16388;DHT22;8303;53.446;9.988;2023-02-18T15:15:34;7.80;1.00
16388;DHT22;8303;53.446;9.988;2023-02-18T15:18:02;7.70;1.00
16388;DHT22;8303;53.446;9.988;2023-02-18T15:20:32;7.70;1.00
16388;DHT22;8303;53.446;9.988;2023-02-18T15:23:01;7.70;1.00
16388;DHT22;8303;53.446;9.988;2023-02-18T15:25:28;7.60;1.00
16388;DHT22;8303;53.446;9.988;2023-02-18T15:27:55;7.60;1.00
16388;DHT22;8303;53.446;9.988;2023-02-18T15:30:25;7.60;1.00
16388;DHT22;8303;53.446;9.988;2023-02-18T15:32:54;7.60;1.00
16388;DHT22;8303;53.446;9.988;2023-02-18T15:35:25;7.70;1.00
16388;DHT22;8303;53.446;9.988;2023-02-18T15:37:55;7.70;1.00
16388;DHT22;8303;53.446;9.988;2023-02-18T15:40:26;7.60;1.00
16388;DHT22;8303;53.446;9.988;2023-02-18T15:42:56;7.60;1.00
16388;DHT22;8303;53.446;9.988;2023-02-18T15:45:29;7.60;1.00
16388;DHT22;8303;53.446;9.988;2023-02-18T15:47:57;7.50;1.00
16388;DHT22;8303;53.446;9.988;2023-02-18T15:50:27;7.40;1.00
16388;DHT22;8303;53.446;9.988;2023-02-18T15:52:57;7.40;1.00
16388;DHT22;8303;53.446;9.988;2023-02-18T15:55:33;7.30;1.00
16388;DHT22;8303;53.446;9.988;2023-02-18T15:58:02;7.30;1.00
16388;DHT22;8303;53.446;9.988;2023-02-18T16:00:34;7.30;1.00
16388;DHT22;8303;53.446;9.988;2023-02-18T16:03:08;7.20;1.00
16388;DHT22;8303;53.446;9.988;2023-02-18T16:05:38;7.20;1.10
16388;DHT22;8303;53.446;9.988;2023-02-18T16:08:13;7.10;1.00
16388;DHT22;8303;53.446;9.988;2023-02-18T16:10:45;7.00;1.00
16388;DHT22;8303;53.446;9.988;2023-02-18T16:13:14;7.00;6.20
16388;DHT22;8303;53.446;9.988;2023-02-18T16:15:46;7.00;18.70
16388;DHT22;8303;53.446;9.988;2023-02-18T16:18:30;6.80;1.00
16388;DHT22;8303;53.446;9.988;2023-02-18T16:21:02;6.70;1.00
16388;DHT22;8303;53.446;9.988;2023-02-18T16:23:39;6.60;1.00
16388;DHT22;8303;53.446;9.988;2023-02-18T16:26:20;6.40;1.00
16388;DHT22;8303;53.446;9.988;2023-02-18T16:28:50;6.30;1.00
16388;DHT22;8303;53.446;9.988;2023-02-18T16:31:17;6.30;1.00
16388;DHT22;8303;53.446;9.988;2023-02-18T16:33:46;6.20;1.00
16388;DHT22;8303;53.446;9.988;2023-02-18T16:36:14;6.20;1.00
16388;DHT22;8303;53.446;9.988;2023-02-18T16:38:42;6.20;1.00
16388;DHT22;8303;53.446;9.988;2023-02-18T16:41:12;6.10;1.00
16388;DHT22;8303;53.446;9.988;2023-02-18T16:43:40;6.00;1.00
16388;DHT22;8303;53.446;9.988;2023-02-18T16:46:09;6.00;1.00
16388;DHT22;8303;53.446;9.988;2023-02-18T16:48:39;6.00;1.00
16388;DHT22;8303;53.446;9.988;2023-02-18T16:51:10;6.00;1.00
16388;DHT22;8303;53.446;9.988;2023-02-18T16:53:39;6.00;1.00
16388;DHT22;8303;53.446;9.988;2023-02-18T16:56:14;6.00;1.00
16388;DHT22;8303;53.446;9.988;2023-02-18T16:58:42;6.10;1.00
16388;DHT22;8303;53.446;9.988;2023-02-18T17:01:20;6.10;1.00
16388;DHT22;8303;53.446;9.988;2023-02-18T17:03:48;6.00;1.00
16388;DHT22;8303;53.446;9.988;2023-02-18T17:06:15;6.00;1.00
16388;DHT22;8303;53.446;9.988;2023-02-18T17:08:42;6.00;1.00
16388;DHT22;8303;53.446;9.988;2023-02-18T17:11:17;6.00;1.00
16388;DHT22;8303;53.446;9.988;2023-02-18T17:13:49;6.00;1.00
16388;DHT22;8303;53.446;9.988;2023-02-18T17:16:16;5.90;1.00
16388;DHT22;8303;53.446;9.988;2023-02-18T17:18:43;5.80;1.00
16388;DHT22;8303;53.446;9.988;2023-02-18T17:21:12;5.70;1.00
16388;DHT22;8303;53.446;9.988;2023-02-18T17:23:40;5.70;1.00
16388;DHT22;8303;53.446;9.988;2023-02-18T17:26:14;5.70;1.00
16388;DHT22;8303;53.446;9.988;2023-02-18T17:28:43;5.70;1.00
16388;DHT22;8303;53.446;9.988;2023-02-18T17:31:14;5.70;1.00
16388;DHT22;8303;53.446;9.988;2023-02-18T17:33:41;5.70;1.00
16388;DHT22;8303;53.446;9.988;2023-02-18T17:36:09;5.70;1.00
16388;DHT22;8303;53.446;9.988;2023-02-18T17:38:36;5.70;1.00
16388;DHT22;8303;53.446;9.988;2023-02-18T17:41:04;5.80;1.00
16388;DHT22;8303;53.446;9.988;2023-02-18T17:43:31;5.70;1.00
16388;DHT22;8303;53.446;9.988;2023-02-18T17:46:00;5.70;1.00
16388;DHT22;8303;53.446;9.988;2023-02-18T17:48:27;5.70;1.00
16388;DHT22;8303;53.446;9.988;2023-02-18T17:50:54;5.70;1.00
16388;DHT22;8303;53.446;9.988;2023-02-18T17:53:21;5.70;1.00
16388;DHT22;8303;53.446;9.988;2023-02-18T17:55:49;5.70;1.00
16388;DHT22;8303;53.446;9.988;2023-02-18T17:58:16;5.70;1.00
16388;DHT22;8303;53.446;9.988;2023-02-18T18:00:45;5.70;1.00
16388;DHT22;8303;53.446;9.988;2023-02-18T18:03:14;5.70;1.00
16388;DHT22;8303;53.446;9.988;2023-02-18T18:05:45;5.70;1.00
16388;DHT22;8303;53.446;9.988;2023-02-18T18:08:13;5.70;1.00
16388;DHT22;8303;53.446;9.988;2023-02-18T18:10:44;5.70;1.00
16388;DHT22;8303;53.446;9.988;2023-02-18T18:13:17;5.70;1.00
16388;DHT22;8303;53.446;9.988;2023-02-18T18:15:44;5.70;1.00
16388;DHT22;8303;53.446;9.988;2023-02-18T18:18:13;5.70;1.00
16388;DHT22;8303;53.446;9.988;2023-02-18T18:20:43;5.60;1.00
16388;DHT22;8303;53.446;9.988;2023-02-18T18:23:11;5.60;1.00
16388;DHT22;8303;53.446;9.988;2023-02-18T18:25:40;5.60;1.00
16388;DHT22;8303;53.446;9.988;2023-02-18T18:28:08;5.60;1.00
16388;DHT22;8303;53.446;9.988;2023-02-18T18:30:36;5.60;1.00
16388;DHT22;8303;53.446;9.988;2023-02-18T18:33:11;5.60;1.00
16388;DHT22;8303;53.446;9.988;2023-02-18T18:35:40;5.60;1.00
16388;DHT22;8303;53.446;9.988;2023-02-18T18:38:07;5.60;1.00
16388;DHT22;8303;53.446;9.988;2023-02-18T18:40:34;5.50;1.00
16388;DHT22;8303;53.446;9.988;2023-02-18T18:43:04;5.50;1.00
16388;DHT22;8303;53.446;9.988;2023-02-18T18:45:33;5.50;1.00
16388;DHT22;8303;53.446;9.988;2023-02-18T18:48:02;5.40;1.00
16388;DHT22;8303;53.446;9.988;2023-02-18T18:50:29;5.40;1.00
16388;DHT22;8303;53.446;9.988;2023-02-18T18:52:57;5.40;1.00
16388;DHT22;8303;53.446;9.988;2023-02-18T18:55:26;5.40;1.00
16388;DHT22;8303;53.446;9.988;2023-02-18T18:57:54;5.40;1.00
16388;DHT22;8303;53.446;9.988;2023-02-18T19:00:24;5.40;1.00
16388;DHT22;8303;53.446;9.988;2023-02-18T19:02:51;5.40;1.00
16388;DHT22;8303;53.446;9.988;2023-02-18T19:05:22;5.40;1.00
16388;DHT22;8303;53.446;9.988;2023-02-18T19:07:49;5.40;1.00
16388;DHT22;8303;53.446;9.988;2023-02-18T19:10:18;5.40;1.00
16388;DHT22;8303;53.446;9.988;2023-02-18T19:12:46;5.40;1.00
16388;DHT22;8303;53.446;9.988;2023-02-18T19:15:16;5.30;1.00
16388;DHT22;8303;53.446;9.988;2023-02-18T19:17:45;5.30;1.00
16388;DHT22;8303;53.446;9.988;2023-02-18T19:20:14;5.30;1.00
16388;DHT22;8303;53.446;9.988;2023-02-18T19:22:41;5.30;1.00
16388;DHT22;8303;53.446;9.988;2023-02-18T19:25:08;5.30;1.00
16388;DHT22;8303;53.446;9.988;2023-02-18T19:27:37;5.30;1.00
16388;DHT22;8303;53.446;9.988;2023-02-18T19:30:05;5.40;1.00
16388;DHT22;8303;53.446;9.988;2023-02-18T19:32:33;5.40;1.00
16388;DHT22;8303;53.446;9.988;2023-02-18T19:35:00;5.40;1.00
16388;DHT22;8303;53.446;9.988;2023-02-18T19:37:30;5.40;1.00
16388;DHT22;8303;53.446;9.988;2023-02-18T19:39:57;5.40;1.00
16388;DHT22;8303;53.446;9.988;2023-02-18T19:42:24;5.40;1.00
16388;DHT22;8303;53.446;9.988;2023-02-18T19:44:52;5.40;1.00
16388;DHT22;8303;53.446;9.988;2023-02-18T19:47:21;5.30;1.00
16388;DHT22;8303;53.446;9.988;2023-02-18T19:49:48;5.50;1.00
16388;DHT22;8303;53.446;9.988;2023-02-18T19:52:15;5.90;1.00
16388;DHT22;8303;53.446;9.988;2023-02-18T19:54:42;6.10;1.00
16388;DHT22;8303;53.446;9.988;2023-02-18T19:57:10;5.60;1.00
16388;DHT22;8303;53.446;9.988;2023-02-18T19:59:37;5.40;1.00
16388;DHT22;8303;53.446;9.988;2023-02-18T20:02:06;5.30;17.60
16388;DHT22;8303;53.446;9.988;2023-02-18T20:04:33;5.10;4.00
16388;DHT22;8303;53.446;9.988;2023-02-18T20:07:00;5.00;99.90
16388;DHT22;8303;53.446;9.988;2023-02-18T20:09:27;5.00;99.90
16388;DHT22;8303;53.446;9.988;2023-02-18T20:11:54;5.00;99.90
16388;DHT22;8303;53.446;9.988;2023-02-18T20:14:21;5.00;99.90
16388;DHT22;8303;53.446;9.988;2023-02-18T20:16:51;4.90;99.90
16388;DHT22;8303;53.446;9.988;2023-02-18T20:19:20;4.90;99.90
16388;DHT22;8303;53.446;9.988;2023-02-18T20:21:48;4.90;99.90
16388;DHT22;8303;53.446;9.988;2023-02-18T20:24:15;4.90;99.90
16388;DHT22;8303;53.446;9.988;2023-02-18T20:26:42;4.80;99.90
16388;DHT22;8303;53.446;9.988;2023-02-18T20:29:09;4.70;99.90
16388;DHT22;8303;53.446;9.988;2023-02-18T20:31:36;4.70;99.90
16388;DHT22;8303;53.446;9.988;2023-02-18T20:34:03;4.70;99.90
16388;DHT22;8303;53.446;9.988;2023-02-18T20:36:31;4.60;99.90
16388;DHT22;8303;53.446;9.988;2023-02-18T20:38:58;4.60;99.90
16388;DHT22;8303;53.446;9.988;2023-02-18T20:41:25;4.60;99.90
16388;DHT22;8303;53.446;9.988;2023-02-18T20:43:52;4.60;99.90
16388;DHT22;8303;53.446;9.988;2023-02-18T20:46:19;4.60;99.90
16388;DHT22;8303;53.446;9.988;2023-02-18T20:48:47;4.70;99.90
16388;DHT22;8303;53.446;9.988;2023-02-18T20:51:16;4.70;99.90
16388;DHT22;8303;53.446;9.988;2023-02-18T20:53:45;4.60;99.90
16388;DHT22;8303;53.446;9.988;2023-02-18T20:56:12;4.60;99.90
16388;DHT22;8303;53.446;9.988;2023-02-18T20:58:40;4.60;99.90
16388;DHT22;8303;53.446;9.988;2023-02-18T21:01:08;4.60;99.90
16388;DHT22;8303;53.446;9.988;2023-02-18T21:03:36;4.50;99.90
16388;DHT22;8303;53.446;9.988;2023-02-18T21:06:05;4.50;99.90
16388;DHT22;8303;53.446;9.988;2023-02-18T21:08:33;4.50;99.90
16388;DHT22;8303;53.446;9.988;2023-02-18T21:11:03;4.50;99.90
16388;DHT22;8303;53.446;9.988;2023-02-18T21:13:31;4.50;99.90
16388;DHT22;8303;53.446;9.988;2023-02-18T21:15:58;4.50;99.90
16388;DHT22;8303;53.446;9.988;2023-02-18T21:18:25;4.50;99.90
16388;DHT22;8303;53.446;9.988;2023-02-18T21:20:52;4.50;99.90
16388;DHT22;8303;53.446;9.988;2023-02-18T21:23:19;4.50;99.90
16388;DHT22;8303;53.446;9.988;2023-02-18T21:25:46;4.50;99.90
16388;DHT22;8303;53.446;9.988;2023-02-18T21:28:14;4.40;99.90
